Time;durP1;ratioP1;P1;durP2;ratioP2;P2;SDS_P1;SDS_P2;PMS_P1;PMS_P2;Temp;Humidity;BMP_temperature;BMP_pressure;BME280_temperature;BME280_humidity;BME280_pressure;Samples;Min_cycle;Max_cycle;Signal;HPM_P1;HPM_P2
2022/04/11 00:00:49;;;;;;;5.82;2.60;;;;;;;12.85;33.78;101780.22;5051943;28;20068;-62
2022/04/11 00:03:16;;;;;;;4.70;3.55;;;;;;;12.83;33.69;101777.69;5051790;28;20091;-62
2022/04/11 00:05:43;;;;;;;3.75;3.08;;;;;;;12.81;33.67;101784.81;5052090;28;20079;-63
2022/04/11 00:08:09;;;;;;;3.88;2.85;;;;;;;12.73;33.81;101784.34;5036268;28;20540;-62
2022/04/11 00:10:36;;;;;;;3.58;2.97;;;;;;;12.71;33.92;101786.22;5031859;28;20137;-65
2022/04/11 00:13:04;;;;;;;3.10;2.70;;;;;;;12.72;33.77;101780.84;5032001;28;20045;-62
2022/04/11 00:15:34;;;;;;;3.42;2.95;;;;;;;12.76;33.80;101785.97;5034257;28;20041;-63
2022/04/11 00:18:01;;;;;;;5.30;3.00;;;;;;;12.76;33.65;101780.69;5035808;28;20092;-63
2022/04/11 00:20:29;;;;;;;5.90;3.25;;;;;;;12.69;33.73;101775.72;5035723;28;20045;-62
2022/04/11 00:22:56;;;;;;;5.30;3.58;;;;;;;12.65;33.76;101779.44;5035164;28;20042;-65
2022/04/11 00:25:23;;;;;;;4.88;2.95;;;;;;;12.64;33.70;101782.16;5035449;28;20049;-62
2022/04/11 00:27:49;;;;;;;5.65;3.28;;;;;;;12.61;33.89;101777.03;5035731;28;20045;-63
2022/04/11 00:30:16;;;;;;;5.00;3.60;;;;;;;12.57;33.99;101785.09;5035619;28;20049;-63
2022/04/11 00:32:46;;;;;;;5.30;3.70;;;;;;;12.54;34.15;101777.34;5035359;28;20053;-63
2022/04/11 00:35:13;;;;;;;3.33;2.70;;;;;;;12.51;34.06;101785.38;5035330;28;20045;-65
2022/04/11 00:37:40;;;;;;;5.35;3.22;;;;;;;12.49;34.31;101781.94;5035358;28;20057;-62
2022/04/11 00:40:08;;;;;;;4.35;3.10;;;;;;;12.46;34.23;101776.00;5035108;28;20045;-63
2022/04/11 00:42:35;;;;;;;3.78;3.10;;;;;;;12.37;34.44;101772.03;5035356;28;20042;-63
2022/04/11 00:45:03;;;;;;;3.60;2.88;;;;;;;12.33;34.55;101770.44;5035175;28;20099;-62
2022/04/11 00:47:30;;;;;;;4.68;2.90;;;;;;;12.28;34.56;101778.59;5035310;28;20046;-62
2022/04/11 00:50:15;;;;;;;4.30;3.25;;;;;;;12.30;34.63;101779.34;5035304;28;20042;-62
2022/04/11 00:52:52;;;;;;;4.35;3.45;;;;;;;12.30;34.61;101781.13;5035137;28;20045;-62
2022/04/11 00:55:21;;;;;;;4.25;3.00;;;;;;;12.25;34.80;101781.34;5034715;28;20446;-64
2022/04/11 00:57:48;;;;;;;2.88;2.25;;;;;;;12.20;34.80;101775.44;5037888;28;20049;-63
2022/04/11 01:00:16;;;;;;;3.65;2.70;;;;;;;12.13;34.90;101782.78;5047960;28;20524;-62
2022/04/11 01:02:42;;;;;;;3.88;2.60;;;;;;;12.09;34.94;101782.06;5054679;28;20554;-63
2022/04/11 01:05:11;;;;;;;4.70;2.90;;;;;;;12.10;34.70;101788.19;5054588;28;20061;-62
2022/04/11 01:07:37;;;;;;;4.18;2.97;;;;;;;12.08;34.65;101790.03;5054879;28;20049;-62
2022/04/11 01:10:05;;;;;;;2.80;2.50;;;;;;;12.05;34.63;101783.13;5054851;28;20077;-62
2022/04/11 01:12:32;;;;;;;4.05;2.45;;;;;;;12.04;34.58;101797.22;5043549;28;20076;-65
2022/04/11 01:14:59;;;;;;;2.50;2.17;;;;;;;12.00;34.53;101793.03;5034722;28;20042;-63
2022/04/11 01:17:36;;;;;;;3.53;2.30;;;;;;;11.93;34.66;101800.31;5034361;28;20482;-65
2022/04/11 01:20:12;;;;;;;3.72;2.50;;;;;;;11.99;34.57;101798.34;5034426;28;20096;-65
2022/04/11 01:22:39;;;;;;;3.55;2.53;;;;;;;11.97;34.47;101806.28;5034586;28;20080;-63
2022/04/11 01:25:07;;;;;;;3.65;2.65;;;;;;;11.92;34.61;101801.22;5034124;28;20129;-62
2022/04/11 01:27:34;;;;;;;2.88;2.33;;;;;;;11.90;34.73;101797.81;5034621;28;20053;-62
2022/04/11 01:30:00;;;;;;;2.92;2.40;;;;;;;11.90;34.75;101794.34;5043095;28;20053;-63
2022/04/11 01:32:28;;;;;;;3.10;2.35;;;;;;;11.87;34.87;101797.09;5054067;28;20045;-62
2022/04/11 01:34:56;;;;;;;3.25;2.50;;;;;;;11.81;34.84;101792.09;5054161;28;20386;-62
2022/04/11 01:37:23;;;;;;;3.65;2.42;;;;;;;11.79;34.89;101793.97;5053998;28;20442;-65
2022/04/11 01:39:50;;;;;;;3.50;2.33;;;;;;;11.74;34.88;101792.41;5054388;28;20417;-63
2022/04/11 01:42:16;;;;;;;5.20;2.35;;;;;;;11.74;34.72;101795.03;5054051;28;20478;-63
2022/04/11 01:44:43;;;;;;;4.85;2.42;;;;;;;11.73;34.75;101792.44;5046106;28;20085;-62
2022/04/11 01:47:09;;;;;;;3.45;2.35;;;;;;;11.73;34.78;101792.44;5033991;28;20080;-63
2022/04/11 01:49:36;;;;;;;4.40;2.50;;;;;;;11.74;34.70;101797.66;5034075;28;20528;-62
2022/04/11 01:52:03;;;;;;;3.58;2.35;;;;;;;11.77;34.65;101801.94;5047045;28;20056;-62
2022/04/11 01:54:30;;;;;;;2.95;2.47;;;;;;;11.78;34.62;101803.59;5053816;28;20508;-63
2022/04/11 01:56:57;;;;;;;3.80;2.75;;;;;;;11.79;34.64;101799.22;5053887;28;20110;-62
2022/04/11 01:59:24;;;;;;;3.28;2.50;;;;;;;11.82;34.67;101801.69;5053013;28;20052;-65
2022/04/11 02:01:51;;;;;;;4.57;2.58;;;;;;;11.82;34.73;101801.69;5053937;28;20080;-62
2022/04/11 02:04:18;;;;;;;3.28;2.17;;;;;;;11.76;34.89;101793.16;5053718;28;20136;-62
2022/04/11 02:06:44;;;;;;;4.13;2.78;;;;;;;11.75;35.03;101796.72;5053539;28;20106;-65
2022/04/11 02:09:11;;;;;;;4.38;2.50;;;;;;;11.71;35.08;101795.16;5053605;28;20094;-62
2022/04/11 02:11:38;;;;;;;2.80;2.25;;;;;;;11.69;35.14;101799.59;5053643;28;20056;-64
2022/04/11 02:14:04;;;;;;;4.00;2.80;;;;;;;11.68;35.07;101797.06;5051740;28;20417;-66
2022/04/11 02:16:32;;;;;;;5.03;2.75;;;;;;;11.60;35.33;101789.50;5033450;28;20045;-63
2022/04/11 02:18:59;;;;;;;4.70;2.72;;;;;;;11.60;35.25;101789.50;5033207;28;20486;-62
2022/04/11 02:21:25;;;;;;;5.25;2.60;;;;;;;11.60;35.29;101787.75;5033358;28;20049;-63
2022/04/11 02:23:52;;;;;;;3.63;2.45;;;;;;;11.58;35.18;101792.22;5033263;28;20497;-65
2022/04/11 02:26:19;;;;;;;4.32;2.90;;;;;;;11.59;35.33;101800.94;5033255;28;20119;-63
2022/04/11 02:28:45;;;;;;;6.82;2.78;;;;;;;11.51;35.56;101803.91;5033329;28;20130;-63
2022/04/11 02:31:12;;;;;;;9.05;3.15;;;;;;;11.55;35.54;101808.13;5033252;28;20049;-63
2022/04/11 02:33:39;;;;;;;4.40;3.28;;;;;;;11.57;35.56;101803.66;5033938;28;20045;-65
2022/04/11 02:36:05;;;;;;;4.50;2.63;;;;;;;11.54;35.58;101798.53;5053000;28;20040;-62
2022/04/11 02:38:33;;;;;;;3.67;2.78;;;;;;;11.49;35.68;101797.88;5052234;28;20528;-65
2022/04/11 02:40:59;;;;;;;3.70;2.60;;;;;;;11.47;35.60;101797.09;5053010;28;20064;-66
2022/04/11 02:43:26;;;;;;;3.75;2.83;;;;;;;11.47;35.47;101802.34;5052884;28;20135;-63
2022/04/11 02:45:53;;;;;;;3.40;2.40;;;;;;;11.46;35.47;101800.63;5052883;28;20044;-62
2022/04/11 02:48:20;;;;;;;3.15;2.33;;;;;;;11.44;35.40;101798.06;5052914;28;20064;-62
2022/04/11 02:50:46;;;;;;;5.43;2.35;;;;;;;11.44;35.32;101797.22;5052850;28;20045;-63
2022/04/11 02:53:13;;;;;;;2.88;2.28;;;;;;;11.46;35.21;101794.53;5050814;28;20084;-62
2022/04/11 02:55:39;;;;;;;4.20;2.42;;;;;;;11.45;35.18;101804.16;5052798;28;20056;-64
2022/04/11 02:58:06;;;;;;;4.18;2.60;;;;;;;11.45;35.24;101806.81;5052591;28;20072;-65
2022/04/11 03:00:33;;;;;;;4.72;2.60;;;;;;;11.42;35.29;101794.66;5052791;28;20358;-64
2022/04/11 03:02:59;;;;;;;3.50;2.45;;;;;;;11.45;35.26;101796.28;5049490;28;20052;-63
2022/04/11 03:05:26;;;;;;;3.45;2.45;;;;;;;11.46;35.25;101800.63;5049343;28;20508;-62
2022/04/11 03:07:52;;;;;;;4.35;2.90;;;;;;;11.41;35.24;101795.59;5044607;28;20065;-62
2022/04/11 03:10:19;;;;;;;2.83;2.17;;;;;;;11.43;35.16;101783.22;5029083;28;20124;-62
2022/04/11 03:12:46;;;;;;;3.25;1.95;;;;;;;11.39;35.30;101793.94;5029336;28;20049;-62
2022/04/11 03:15:12;;;;;;;4.50;2.15;;;;;;;11.40;35.23;101793.00;5029305;28;20509;-62
2022/04/11 03:17:39;;;;;;;3.63;2.45;;;;;;;11.38;35.28;101792.25;5029274;28;20106;-62
2022/04/11 03:20:06;;;;;;;5.25;3.20;;;;;;;11.36;35.17;101791.44;5029085;28;20387;-63
2022/04/11 03:22:33;;;;;;;5.32;3.22;;;;;;;11.34;35.39;101781.00;5029268;28;20053;-62
2022/04/11 03:24:59;;;;;;;5.38;2.80;;;;;;;11.31;35.35;101775.84;5028642;28;20581;-62
2022/04/11 03:27:26;;;;;;;6.50;2.75;;;;;;;11.28;35.28;101781.25;5029092;28;20045;-63
2022/04/11 03:29:53;;;;;;;6.93;2.85;;;;;;;11.26;35.20;101773.44;5029557;28;20049;-62
2022/04/11 03:32:19;;;;;;;4.55;2.42;;;;;;;11.25;35.49;101776.16;5028856;28;20838;-62
2022/04/11 03:34:46;;;;;;;5.30;2.50;;;;;;;11.24;35.17;101780.53;5029003;28;20045;-62
2022/04/11 03:37:12;;;;;;;3.50;2.20;;;;;;;11.30;34.90;101771.53;5028823;28;20454;-62
2022/04/11 03:39:39;;;;;;;2.97;2.05;;;;;;;11.32;34.65;101772.31;5028891;28;20539;-63
2022/04/11 03:42:06;;;;;;;3.25;2.20;;;;;;;11.32;34.79;101769.69;5028499;28;20053;-62
2022/04/11 03:44:35;;;;;;;4.07;2.00;;;;;;;11.32;34.70;101774.94;5028957;28;20076;-63
2022/04/11 03:47:02;;;;;;;3.13;1.92;;;;;;;11.30;34.83;101774.19;5028668;28;20085;-64
2022/04/11 03:49:29;;;;;;;2.45;1.98;;;;;;;11.31;34.72;101777.66;5031559;28;20049;-62
2022/04/11 03:51:56;;;;;;;3.58;2.10;;;;;;;11.34;34.65;101780.13;5033053;28;20056;-62
2022/04/11 03:54:22;;;;;;;4.18;1.75;;;;;;;11.34;34.70;101767.84;5032799;28;20119;-63
2022/04/11 03:56:49;;;;;;;3.03;2.00;;;;;;;11.33;34.75;101778.44;5032518;28;20104;-62
2022/04/11 03:59:15;;;;;;;4.05;2.50;;;;;;;11.32;34.82;101779.34;5032850;28;20060;-62
2022/04/11 04:01:42;;;;;;;5.05;2.28;;;;;;;11.33;34.88;101775.81;5032508;28;20506;-62
2022/04/11 04:04:09;;;;;;;6.43;2.00;;;;;;;11.30;34.94;101786.44;5032700;28;20049;-62
2022/04/11 04:06:35;;;;;;;3.35;1.95;;;;;;;11.32;34.97;101782.81;5032999;28;20128;-62
2022/04/11 04:09:02;;;;;;;2.72;2.20;;;;;;;11.32;34.98;101784.63;5032543;28;20057;-63
2022/04/11 04:11:29;;;;;;;3.00;2.00;;;;;;;11.31;35.18;101780.28;5032687;28;20041;-62
2022/04/11 04:13:55;;;;;;;3.33;2.35;;;;;;;11.27;35.22;101790.06;5032330;28;20080;-62
2022/04/11 04:16:22;;;;;;;3.97;2.63;;;;;;;11.24;35.26;101791.03;5032315;28;20080;-63
2022/04/11 04:18:49;;;;;;;3.03;2.20;;;;;;;11.31;35.30;101796.03;5032312;28;20478;-62
2022/04/11 04:21:18;;;;;;;3.72;2.50;;;;;;;11.29;35.50;101793.47;5032303;28;20068;-62
2022/04/11 04:23:45;;;;;;;6.00;2.70;;;;;;;11.26;35.62;101790.97;5032228;28;20084;-62
2022/04/11 04:26:12;;;;;;;3.58;2.60;;;;;;;11.23;36.06;101796.38;5032080;28;20045;-62
2022/04/11 04:28:39;;;;;;;4.63;3.05;;;;;;;11.19;36.04;101797.44;5032403;28;20053;-62
2022/04/11 04:31:05;;;;;;;7.03;3.60;;;;;;;11.22;36.27;101797.28;5032103;28;20457;-62
2022/04/11 04:33:32;;;;;;;6.07;3.20;;;;;;;11.20;36.45;101792.09;5031935;28;20072;-62
2022/04/11 04:36:04;;;;;;;8.30;3.92;;;;;;;11.24;36.51;101796.28;5032365;28;20440;-63
2022/04/11 04:38:30;;;;;;;8.15;4.40;;;;;;;11.18;36.85;101793.91;5032069;28;20387;-62
2022/04/11 04:40:57;;;;;;;8.57;5.07;;;;;;;11.18;37.11;101796.56;5032024;28;20057;-62
2022/04/11 04:43:25;;;;;;;8.80;4.53;;;;;;;11.15;37.36;101788.81;5032021;28;20383;-62
2022/04/11 04:45:51;;;;;;;7.03;4.15;;;;;;;11.16;37.36;101798.41;5031898;28;20528;-62
2022/04/11 04:48:18;;;;;;;7.28;4.38;;;;;;;11.16;37.63;101802.78;5031061;28;20528;-62
2022/04/11 04:50:45;;;;;;;6.40;4.20;;;;;;;11.16;37.84;101792.28;5037478;28;20037;-63
2022/04/11 04:53:11;;;;;;;8.07;4.00;;;;;;;11.15;37.87;101796.69;5051588;28;20500;-63
2022/04/11 04:55:38;;;;;;;8.32;4.10;;;;;;;11.16;38.07;101802.78;5051556;28;20045;-62
2022/04/11 04:58:05;;;;;;;10.63;4.40;;;;;;;11.16;37.94;101790.53;5051480;28;20083;-62
2022/04/11 05:00:31;;;;;;;9.25;4.10;;;;;;;11.21;38.08;101790.31;5050572;28;20072;-62
2022/04/11 05:02:58;;;;;;;2.55;2.00;;;;;;;11.95;40.15;101791.47;5051196;28;20048;-62
2022/04/11 05:05:25;;;;;;;7.55;4.68;;;;;;;12.01;40.89;101786.84;5042958;28;20111;-62
2022/04/11 05:07:51;;;;;;;6.95;4.53;;;;;;;11.77;40.57;101787.00;5041391;28;20045;-61
2022/04/11 05:10:18;;;;;;;5.97;4.18;;;;;;;11.64;40.39;101790.22;5050944;28;20053;-62
2022/04/11 05:12:46;;;;;;;6.72;5.00;;;;;;;11.57;40.26;101789.66;5051254;28;20128;-62
2022/04/11 05:15:14;;;;;;;10.30;4.50;;;;;;;11.53;40.04;101788.06;5051400;28;20077;-61
2022/04/11 05:17:41;;;;;;;8.43;4.65;;;;;;;11.50;39.74;101786.41;5051099;28;20375;-61
2022/04/11 05:20:13;;;;;;;9.68;4.57;;;;;;;11.47;39.79;101786.56;5051297;28;20056;-61
2022/04/11 05:22:44;;;;;;;10.93;5.47;;;;;;;11.50;39.91;101802.19;5050097;28;20088;-61
2022/04/11 05:25:10;;;;;;;16.83;5.15;;;;;;;12.01;40.16;101793.84;5051091;28;20067;-61
2022/04/11 05:27:37;;;;;;;10.88;4.88;;;;;;;11.80;40.02;101795.69;5050951;28;20079;-61
2022/04/11 05:30:05;;;;;;;9.95;5.25;;;;;;;11.75;40.06;101795.88;5037756;28;20084;-61
2022/04/11 05:32:35;;;;;;;16.08;5.97;;;;;;;11.72;39.88;101793.38;5035435;28;20060;-61
2022/04/11 05:35:01;;;;;;;13.60;5.03;;;;;;;11.73;40.01;101802.97;5050545;28;20501;-62
2022/04/11 05:37:28;;;;;;;12.00;4.97;;;;;;;11.72;40.08;101811.78;5050982;28;20063;-61
2022/04/11 05:39:56;;;;;;;13.18;5.32;;;;;;;11.79;40.04;101807.94;5050929;28;20048;-61
2022/04/11 05:42:22;;;;;;;13.02;5.18;;;;;;;11.86;39.93;101819.03;5050818;28;20119;-61
2022/04/11 05:44:49;;;;;;;20.63;6.00;;;;;;;11.87;39.89;101818.13;5050602;28;20045;-61
2022/04/11 05:47:15;;;;;;;9.82;4.90;;;;;;;11.95;39.90;101823.03;5039151;28;20046;-61
2022/04/11 05:49:42;;;;;;;9.63;4.45;;;;;;;11.95;39.85;101817.78;5030915;28;20045;-62
2022/04/11 05:52:09;;;;;;;14.73;5.85;;;;;;;12.03;39.90;101821.81;5030928;28;20053;-61
2022/04/11 05:54:38;;;;;;;24.52;6.10;;;;;;;12.04;39.83;101828.78;5030502;28;20053;-61
2022/04/11 05:57:05;;;;;;;10.02;5.10;;;;;;;12.16;39.80;101834.41;5030367;28;20461;-62
2022/04/11 05:59:31;;;;;;;9.10;5.20;;;;;;;12.22;39.72;101839.41;5030932;28;20049;-61
2022/04/11 06:01:58;;;;;;;10.93;4.75;;;;;;;12.29;39.70;101835.56;5030594;28;20052;-61
2022/04/11 06:04:25;;;;;;;8.63;4.90;;;;;;;12.37;39.49;101845.72;5029832;28;20049;-65
2022/04/11 06:06:51;;;;;;;8.40;4.88;;;;;;;12.40;39.42;101849.09;5030425;28;20152;-61
2022/04/11 06:09:18;;;;;;;13.93;4.65;;;;;;;12.48;39.44;101847.84;5030358;28;20072;-61
2022/04/11 06:11:45;;;;;;;12.57;5.18;;;;;;;12.51;39.35;101848.56;5048698;28;20045;-61
2022/04/11 06:14:12;;;;;;;10.82;5.35;;;;;;;12.61;39.09;101849.00;5049441;28;20584;-61
2022/04/11 06:16:38;;;;;;;11.55;5.10;;;;;;;12.67;39.23;101847.81;5049850;28;20045;-61
2022/04/11 06:19:05;;;;;;;10.93;5.15;;;;;;;12.75;39.22;101848.34;5046130;28;20057;-61
2022/04/11 06:21:32;;;;;;;12.10;5.10;;;;;;;12.86;39.12;101848.66;5046315;28;20470;-61
2022/04/11 06:23:59;;;;;;;15.57;5.40;;;;;;;12.96;39.10;101856.13;5049708;28;20094;-61
2022/04/11 06:26:25;;;;;;;14.25;5.25;;;;;;;13.04;38.85;101857.44;5049513;28;20072;-61
2022/04/11 06:28:52;;;;;;;19.90;5.53;;;;;;;13.07;39.01;101859.06;5049472;28;20412;-61
2022/04/11 06:31:18;;;;;;;17.05;5.68;;;;;;;13.16;38.77;101858.63;5049419;28;20106;-61
2022/04/11 06:33:45;;;;;;;15.68;6.22;;;;;;;13.23;38.77;101860.03;5049260;28;20472;-61
2022/04/11 06:36:17;;;;;;;17.20;5.38;;;;;;;13.34;38.49;101864.75;5047321;28;20037;-61
2022/04/11 06:38:43;;;;;;;16.73;5.70;;;;;;;13.43;38.54;101854.72;5048596;28;20048;-61
2022/04/11 06:41:10;;;;;;;12.23;5.60;;;;;;;13.50;38.43;101856.13;5049396;28;20182;-61
2022/04/11 06:43:37;;;;;;;10.35;5.78;;;;;;;13.60;38.47;101861.75;5049050;28;20045;-61
2022/04/11 06:46:04;;;;;;;13.38;5.50;;;;;;;13.73;38.21;101868.09;5049228;28;20640;-62
2022/04/11 06:48:31;;;;;;;12.85;5.75;;;;;;;13.84;38.08;101860.47;5046660;28;20055;-61
2022/04/11 06:50:57;;;;;;;12.27;5.15;;;;;;;13.98;37.86;101861.53;5048585;28;20099;-61
2022/04/11 06:53:24;;;;;;;7.60;4.25;;;;;;;14.10;37.82;101854.75;5048560;28;20080;-61
2022/04/11 06:55:51;;;;;;;9.35;4.70;;;;;;;14.19;37.20;101848.97;5046677;28;20482;-63
2022/04/11 06:58:21;;;;;;;14.57;5.50;;;;;;;14.30;36.95;101851.88;5030228;28;21459;-67
2022/04/11 07:00:50;;;;;;;10.55;5.38;;;;;;;14.42;36.55;101849.50;5048519;28;20387;-66
2022/04/11 07:03:17;;;;;;;8.45;4.95;;;;;;;14.51;35.98;101847.22;5048221;28;20067;-62
2022/04/11 07:05:44;;;;;;;6.88;4.40;;;;;;;14.61;35.67;101847.53;5048402;28;20045;-64
2022/04/11 07:08:11;;;;;;;12.80;4.50;;;;;;;14.74;35.33;101853.03;5047915;28;20090;-61
2022/04/11 07:10:40;;;;;;;9.10;4.13;;;;;;;14.84;35.11;101856.00;5043270;28;20127;-64
2022/04/11 07:13:07;;;;;;;8.15;4.25;;;;;;;14.91;34.54;101869.72;5043128;28;20037;-61
2022/04/11 07:15:34;;;;;;;7.53;3.92;;;;;;;15.00;34.43;101869.19;5048872;28;20047;-62
2022/04/11 07:18:01;;;;;;;7.07;4.10;;;;;;;15.10;33.81;101869.53;5048801;28;20383;-61
2022/04/11 07:20:27;;;;;;;9.65;4.00;;;;;;;15.18;33.65;101870.78;5048826;28;20081;-61
2022/04/11 07:22:54;;;;;;;8.07;3.95;;;;;;;15.27;33.34;101879.09;5047866;28;20405;-61
2022/04/11 07:25:23;;;;;;;9.63;3.88;;;;;;;15.33;32.87;101884.88;5039826;28;20073;-61
2022/04/11 07:27:50;;;;;;;7.82;4.30;;;;;;;15.49;32.46;101881.31;5028439;28;20489;-61
2022/04/11 07:30:17;;;;;;;10.95;4.43;;;;;;;15.61;32.41;101882.41;5046666;28;20049;-61
2022/04/11 07:32:44;;;;;;;8.95;4.32;;;;;;;15.71;31.96;101883.56;5048133;28;20397;-61
2022/04/11 07:35:12;;;;;;;9.07;4.20;;;;;;;15.80;31.81;101880.34;5047974;28;20041;-61
2022/04/11 07:37:39;;;;;;;9.95;4.47;;;;;;;15.90;31.59;101887.78;5048081;28;20468;-61
2022/04/11 07:40:06;;;;;;;6.35;4.05;;;;;;;15.96;31.35;101892.69;5048438;28;20053;-61
2022/04/11 07:42:33;;;;;;;8.15;4.10;;;;;;;16.08;30.95;101885.78;5038348;28;20046;-61
2022/04/11 07:44:59;;;;;;;8.25;4.78;;;;;;;16.22;30.83;101891.06;5028782;28;20482;-61
2022/04/11 07:47:26;;;;;;;7.28;4.35;;;;;;;16.30;30.57;101898.53;5028131;28;20104;-66
2022/04/11 07:49:52;;;;;;;8.18;3.97;;;;;;;16.35;30.55;101888.50;5028717;28;20716;-61
2022/04/11 07:52:21;;;;;;;8.43;4.45;;;;;;;16.51;30.18;101884.91;5027564;28;20510;-63
2022/04/11 07:54:47;;;;;;;6.65;3.90;;;;;;;16.59;29.79;101898.50;5027378;28;20049;-62
2022/04/11 07:57:14;;;;;;;6.57;3.58;;;;;;;16.67;29.86;101895.38;5028169;28;20499;-61
2022/04/11 08:00:01;;;;;;;6.53;3.60;;;;;;;16.79;29.14;101898.06;5045091;28;20106;-61
2022/04/11 08:02:28;;;;;;;8.02;3.90;;;;;;;16.89;29.19;101894.84;5047920;28;20045;-62
2022/04/11 08:04:54;;;;;;;7.15;4.13;;;;;;;17.03;29.06;101893.97;5048362;28;20485;-62
2022/04/11 08:07:21;;;;;;;7.10;4.25;;;;;;;17.15;28.83;101898.44;5048030;28;20140;-62
2022/04/11 08:09:51;;;;;;;7.90;3.97;;;;;;;17.26;28.53;101892.44;5048096;28;20049;-62
2022/04/11 08:12:18;;;;;;;6.28;3.97;;;;;;;17.40;28.54;101886.22;5048438;28;20045;-61
2022/04/11 08:14:45;;;;;;;6.93;3.70;;;;;;;17.55;28.59;101892.31;5047865;28;20052;-62
2022/04/11 08:17:12;;;;;;;7.97;4.07;;;;;;;17.70;28.61;101887.72;5027794;28;20128;-62
2022/04/11 08:19:39;;;;;;;6.35;3.65;;;;;;;17.89;28.61;101885.50;5027993;28;20442;-62
2022/04/11 08:22:06;;;;;;;8.48;3.78;;;;;;;18.05;28.40;101890.63;5028024;28;20049;-61
2022/04/11 08:24:33;;;;;;;5.82;3.15;;;;;;;18.17;28.05;101880.94;5027908;28;20053;-61
2022/04/11 08:26:59;;;;;;;7.80;4.10;;;;;;;18.23;28.03;101891.16;5028378;28;20049;-62
2022/04/11 08:29:26;;;;;;;7.38;4.30;;;;;;;18.35;27.97;101883.25;5039141;28;20051;-61
2022/04/11 08:31:53;;;;;;;9.63;3.20;;;;;;;18.51;27.70;101888.31;5034727;28;20117;-60
2022/04/11 08:34:20;;;;;;;5.60;3.30;;;;;;;18.59;27.82;101881.47;5027395;28;20120;-63
2022/04/11 08:36:48;;;;;;;4.18;2.80;;;;;;;18.74;27.48;101883.97;5048021;28;20041;-63
2022/04/11 08:39:16;;;;;;;5.93;3.17;;;;;;;18.88;27.16;101878.50;5041695;28;20061;-65
2022/04/11 08:41:43;;;;;;;5.70;3.22;;;;;;;18.96;27.29;101874.44;5031650;28;20041;-63
2022/04/11 08:44:12;;;;;;;6.38;3.20;;;;;;;19.03;27.09;101875.69;5062851;28;20076;-63
2022/04/11 08:46:39;;;;;;;5.63;2.25;;;;;;;19.19;27.41;101880.72;5031438;28;20099;-63
2022/04/11 08:49:06;;;;;;;4.35;2.70;;;;;;;19.33;27.19;101874.34;5030252;28;20049;-63
2022/04/11 08:51:36;;;;;;;5.70;2.60;;;;;;;19.44;26.93;101876.19;5031419;28;20084;-63
2022/04/11 08:54:04;;;;;;;6.18;2.72;;;;;;;19.60;27.18;101879.38;5031060;28;20045;-63
2022/04/11 08:56:32;;;;;;;4.40;2.47;;;;;;;19.71;26.70;101881.22;5031482;28;20053;-63
2022/04/11 08:58:59;;;;;;;5.50;3.10;;;;;;;19.77;26.92;101882.53;5038577;28;20061;-64
2022/04/11 09:01:25;;;;;;;3.70;2.30;;;;;;;19.87;26.28;101879.09;5050153;28;20067;-65
2022/04/11 09:03:52;;;;;;;5.53;2.60;;;;;;;20.02;26.04;101879.72;5050396;28;20048;-63
2022/04/11 09:06:22;;;;;;;4.28;2.67;;;;;;;19.89;25.71;101879.78;5050897;28;20087;-62
2022/04/11 09:08:55;;;;;;;5.43;2.40;;;;;;;20.11;25.09;101878.09;5050760;28;20089;-61
2022/04/11 09:11:28;;;;;;;4.82;2.85;;;;;;;20.27;24.65;101872.41;5050914;28;20079;-64
2022/04/11 09:13:55;;;;;;;3.30;2.33;;;;;;;20.37;24.00;101875.19;5050513;28;20041;-66
2022/04/11 09:16:21;;;;;;;3.53;2.30;;;;;;;20.54;23.67;101874.69;5050963;28;20950;-62
2022/04/11 09:18:52;;;;;;;2.78;2.20;;;;;;;20.75;23.88;101883.72;5039353;28;20064;-62
2022/04/11 09:21:20;;;;;;;2.85;1.70;;;;;;;20.84;23.20;101885.66;5029376;28;20111;-63
2022/04/11 09:23:47;;;;;;;4.18;2.10;;;;;;;20.98;22.72;101873.84;5030167;28;20096;-63
2022/04/11 09:26:20;;;;;;;2.45;2.10;;;;;;;21.16;22.17;101879.47;5031107;28;20050;-62
2022/04/11 09:29:00;;;;;;;3.08;1.90;;;;;;;21.24;21.87;101873.47;5036670;28;20045;-62
2022/04/11 09:31:27;;;;;;;6.07;2.45;;;;;;;21.37;21.82;101869.63;5050688;28;20056;-62
2022/04/11 09:33:54;;;;;;;4.43;2.40;;;;;;;21.46;21.86;101884.03;5049997;28;20088;-63
2022/04/11 09:36:46;;;;;;;4.15;2.13;;;;;;;21.64;22.19;101878.97;5049285;28;20045;-62
2022/04/11 09:39:30;;;;;;;4.65;3.33;;;;;;;21.76;22.20;101863.69;5050380;28;20382;-62
2022/04/11 09:42:03;;;;;;;9.75;3.67;;;;;;;21.90;21.98;101862.50;5050915;28;20052;-62
2022/04/11 09:44:31;;;;;;;4.53;2.80;;;;;;;22.05;21.96;101871.00;5050282;28;20080;-62
2022/04/11 09:47:05;;;;;;;4.35;2.67;;;;;;;22.17;22.14;101867.25;5050256;28;20088;-63
2022/04/11 09:49:33;;;;;;;4.15;2.50;;;;;;;22.23;21.97;101868.53;5050264;28;20052;-62
2022/04/11 09:52:08;;;;;;;5.38;2.72;;;;;;;22.27;22.31;101861.94;5049037;28;20144;-63
2022/04/11 09:54:36;;;;;;;;;;;;;;;22.36;22.14;101862.97;5030418;28;20045;-62
2022/04/11 09:57:04;;;;;;;7.07;2.45;;;;;;;22.46;22.36;101861.19;5030734;28;19971;-62
2022/04/11 09:59:32;;;;;;;4.45;2.80;;;;;;;22.45;22.61;101864.84;5041596;28;20063;-63
2022/04/11 10:02:21;;;;;;;5.88;2.83;;;;;;;22.56;22.69;101863.00;5044742;28;20050;-62
2022/04/11 10:04:49;;;;;;;5.95;2.90;;;;;;;22.49;22.79;101865.41;5029708;28;20049;-62
2022/04/11 10:07:16;;;;;;;5.22;2.83;;;;;;;22.61;22.57;101855.41;5030085;28;20057;-65
2022/04/11 10:09:43;;;;;;;6.53;2.90;;;;;;;22.76;22.51;101855.84;5029186;28;20099;-63
2022/04/11 10:12:10;;;;;;;5.07;2.40;;;;;;;22.82;22.21;101853.47;5029785;28;20081;-62
2022/04/11 10:14:40;;;;;;;5.05;2.60;;;;;;;22.95;22.09;101850.50;5029495;28;20045;-62
2022/04/11 10:17:07;;;;;;;8.55;2.38;;;;;;;23.00;22.22;101842.06;5029898;28;20087;-62
2022/04/11 10:19:38;;;;;;;5.20;2.45;;;;;;;23.14;22.26;101841.59;5044318;28;20152;-65
2022/04/11 10:22:12;;;;;;;5.68;2.70;;;;;;;23.23;22.35;101839.94;5049657;28;20045;-65
2022/04/11 10:24:48;;;;;;;5.03;3.08;;;;;;;23.23;22.28;101831.91;5049446;28;20072;-65
2022/04/11 10:27:22;;;;;;;5.80;3.00;;;;;;;23.40;22.53;101837.50;5038598;28;20462;-64
2022/04/11 10:29:50;;;;;;;4.07;2.30;;;;;;;23.54;22.32;101830.84;5044137;28;20099;-65
2022/04/11 10:32:22;;;;;;;4.03;3.00;;;;;;;23.62;22.15;101822.94;5049130;28;20049;-65
2022/04/11 10:34:50;;;;;;;5.43;2.78;;;;;;;23.71;21.94;101829.25;5049554;28;20126;-65
2022/04/11 10:37:18;;;;;;;4.93;3.15;;;;;;;23.83;21.96;101824.53;5048822;28;20091;-64
2022/04/11 10:39:46;;;;;;;4.38;2.70;;;;;;;23.90;21.92;101817.59;5031257;28;20053;-65
2022/04/11 10:42:17;;;;;;;5.47;2.72;;;;;;;23.98;21.88;101816.88;5028795;28;20505;-64
2022/04/11 10:44:54;;;;;;;6.03;3.25;;;;;;;24.01;21.54;101820.13;5036837;28;20565;-65
2022/04/11 10:47:31;;;;;;;4.05;2.50;;;;;;;24.22;21.42;101814.47;5041948;28;20048;-65
2022/04/11 10:49:58;;;;;;;3.20;2.17;;;;;;;24.38;21.21;101807.59;5049348;28;20417;-63
2022/04/11 10:52:32;;;;;;;3.50;2.63;;;;;;;24.45;21.19;101808.69;5048643;28;20503;-63
2022/04/11 10:55:07;;;;;;;3.50;2.45;;;;;;;24.52;21.43;101811.59;5048820;28;20123;-63
2022/04/11 10:57:38;;;;;;;3.15;2.28;;;;;;;24.57;21.20;101806.59;5046470;28;20049;-62
2022/04/11 11:00:13;;;;;;;6.22;3.30;;;;;;;24.52;21.47;101790.13;5039996;28;20095;-64
2022/04/11 11:02:52;;;;;;;6.15;3.15;;;;;;;24.40;21.00;101792.19;5048239;28;20504;-62
2022/04/11 11:05:31;;;;;;;3.70;2.83;;;;;;;24.36;20.73;101793.50;5048582;28;20386;-67
2022/04/11 11:08:09;;;;;;;5.70;2.97;;;;;;;24.55;20.44;101787.13;5049171;28;20048;-65
2022/04/11 11:10:57;;;;;;;3.47;2.50;;;;;;;24.83;20.97;101790.59;5048131;28;20049;-62
2022/04/11 11:13:36;;;;;;;11.75;7.32;;;;;;;24.77;20.93;101800.13;5048241;28;20083;-63
2022/04/11 11:16:11;;;;;;;4.50;3.28;;;;;;;24.75;20.78;101793.22;5047428;28;20045;-63
2022/04/11 11:21:14;;;;;;;4.25;3.83;;;;;;;24.93;21.18;101777.91;5048566;28;20059;-65
2022/04/11 11:23:41;;;;;;;20.65;9.07;;;;;;;25.09;20.95;101781.75;5047974;28;20041;-66
2022/04/11 11:26:12;;;;;;;5.50;3.20;;;;;;;25.22;20.68;101775.94;5048802;28;20395;-63
2022/04/11 11:28:42;;;;;;;20.77;13.80;;;;;;;25.22;20.63;101787.50;5047901;28;20067;-63
2022/04/11 11:31:12;;;;;;;5.38;3.20;;;;;;;25.23;20.43;101783.84;5048247;28;20080;-63